createdAt,value
2022-10-28T00:04:53.986Z,88.26
2022-10-28T00:09:55.758Z,88.27
2022-10-28T00:14:57.846Z,88.10
2022-10-28T00:19:59.693Z,88.06
2022-10-28T00:25:01.970Z,88.01
2022-10-28T00:30:04.950Z,88.02
2022-10-28T00:35:08.008Z,88.04
2022-10-28T00:40:10.562Z,88.23
2022-10-28T00:45:12.801Z,88.29
2022-10-28T00:50:29.029Z,88.34
2022-10-28T00:55:33.229Z,88.31
2022-10-28T01:00:35.148Z,88.14
2022-10-28T01:05:42.794Z,88.18
2022-10-28T01:11:09.656Z,88.17
2022-10-28T01:16:56.629Z,88.11
2022-10-28T01:22:13.357Z,88.08
2022-10-28T01:27:29.906Z,88.06
2022-10-28T01:32:44.037Z,88.04
2022-10-28T01:38:00.218Z,88.09
2022-10-28T01:43:36.864Z,88.17
2022-10-28T01:48:48.094Z,88.26
2022-10-28T01:53:53.788Z,88.38
2022-10-28T01:58:59.102Z,88.50
2022-10-28T02:04:01.394Z,88.48
2022-10-28T02:09:06.545Z,88.37
2022-10-28T02:14:11.318Z,88.36
2022-10-28T02:19:25.374Z,88.36
2022-10-28T02:25:02.505Z,88.28
2022-10-28T02:30:07.029Z,88.20
2022-10-28T02:35:19.087Z,88.14
2022-10-28T02:40:25.932Z,88.10
2022-10-28T02:45:35.349Z,88.02
2022-10-28T02:50:42.358Z,88.00
2022-10-28T02:55:48.317Z,88.04
2022-10-28T03:00:51.425Z,88.08
2022-10-28T03:05:53.852Z,88.14
2022-10-28T03:10:55.910Z,88.19
2022-10-28T03:15:57.935Z,88.17
2022-10-28T03:20:59.738Z,88.13
2022-10-28T03:26:01.860Z,88.25
2022-10-28T03:31:04.940Z,88.39
2022-10-28T03:36:07.436Z,88.53
2022-10-28T03:41:09.310Z,88.57
2022-10-28T03:46:11.124Z,88.58
2022-10-28T03:51:13.140Z,88.58
2022-10-28T03:56:21.827Z,88.60
2022-10-28T04:01:23.686Z,88.74
2022-10-28T04:06:25.738Z,88.85
2022-10-28T04:11:27.511Z,88.90
2022-10-28T04:16:29.353Z,89.02
2022-10-28T04:21:31.161Z,89.22
2022-10-28T04:26:33.191Z,89.41
2022-10-28T04:31:35.002Z,89.56
2022-10-28T04:36:37.475Z,89.64
2022-10-28T04:41:39.276Z,89.74
2022-10-28T04:46:41.006Z,89.74
2022-10-28T04:51:42.978Z,89.75
2022-10-28T04:56:44.785Z,89.78
2022-10-28T05:01:47.136Z,89.77
2022-10-28T05:06:49.474Z,89.81
2022-10-28T05:11:52.086Z,89.85
2022-10-28T05:16:54.141Z,89.90
2022-10-28T05:21:56.174Z,89.89
2022-10-28T05:26:59.971Z,89.94
2022-10-28T05:32:02.307Z,90.03
2022-10-28T05:37:04.718Z,90.07
2022-10-28T05:42:06.535Z,90.12
2022-10-28T05:47:08.382Z,90.16
2022-10-28T05:52:10.662Z,90.25
2022-10-28T05:57:13.212Z,90.36
2022-10-28T06:02:15.378Z,90.38
2022-10-28T06:07:17.302Z,90.39
2022-10-28T06:12:17.683Z,90.35
2022-10-28T06:17:19.543Z,90.31
2022-10-28T06:22:21.708Z,90.24
2022-10-28T06:27:23.575Z,90.09
2022-10-28T06:32:25.653Z,90.03
2022-10-28T06:37:27.723Z,89.93
2022-10-28T06:42:29.927Z,89.89
2022-10-28T06:47:34.889Z,89.79
2022-10-28T06:52:39.633Z,89.64
2022-10-28T06:57:41.488Z,89.47
2022-10-28T07:02:45.204Z,89.26
2022-10-28T07:07:47.870Z,89.05
2022-10-28T07:12:52.835Z,88.71
2022-10-28T07:17:57.307Z,88.34
2022-10-28T07:23:00.898Z,87.90
2022-10-28T07:28:02.999Z,87.37
2022-10-28T07:33:05.840Z,86.82
2022-10-28T07:38:08.022Z,86.35
2022-10-28T07:43:10.534Z,85.66
2022-10-28T07:48:12.591Z,84.96
2022-10-28T07:58:17.715Z,84.16
2022-10-28T08:03:19.893Z,83.96
2022-10-28T08:08:21.693Z,83.67
2022-10-28T08:13:23.839Z,83.37
2022-10-28T08:18:32.858Z,83.16
2022-10-28T08:23:35.255Z,82.45
2022-10-28T08:28:36.980Z,81.71
2022-10-28T08:33:42.244Z,81.26
2022-10-28T08:38:46.372Z,80.67
2022-10-28T08:43:57.764Z,80.21
2022-10-28T08:49:03.061Z,79.88
2022-10-28T08:54:13.428Z,79.29
2022-10-28T08:59:22.721Z,78.96
2022-10-28T09:04:36.349Z,78.70
2022-10-28T09:09:38.779Z,78.84
2022-10-28T09:14:52.163Z,78.64
2022-10-28T09:20:10.010Z,78.26
2022-10-28T09:25:36.650Z,77.75
2022-10-28T09:31:06.473Z,77.29
2022-10-28T09:36:19.891Z,75.83
2022-10-28T09:41:27.764Z,74.94
2022-10-28T09:46:34.627Z,73.50
2022-10-28T09:51:47.006Z,73.13
2022-10-28T09:56:51.200Z,72.07
2022-10-28T10:01:54.042Z,71.81
2022-10-28T10:07:02.706Z,71.39
2022-10-28T10:12:10.176Z,71.01
2022-10-28T10:17:17.689Z,70.39
2022-10-28T10:22:33.407Z,70.21
2022-10-28T10:27:35.795Z,70.24
2022-10-28T10:32:45.833Z,68.44
2022-10-28T10:37:57.640Z,67.82
2022-10-28T10:43:18.177Z,67.84
2022-10-28T10:48:20.506Z,67.73
2022-10-28T10:53:32.067Z,67.51
2022-10-28T10:59:03.010Z,66.69
2022-10-28T11:04:07.530Z,66.61
2022-10-28T11:09:31.001Z,66.77
2022-10-28T11:14:33.080Z,66.69
2022-10-28T11:19:37.622Z,66.19
2022-10-28T11:24:58.244Z,65.65
2022-10-28T11:30:00.948Z,64.66
2022-10-28T11:35:09.501Z,63.78
2022-10-28T11:40:13.377Z,63.87
2022-10-28T11:45:44.696Z,63.60
2022-10-28T11:51:12.208Z,62.76
2022-10-28T11:56:34.612Z,62.02
2022-10-28T12:02:05.114Z,61.30
2022-10-28T12:07:26.901Z,60.56
2022-10-28T12:12:50.445Z,59.82
2022-10-28T12:18:06.255Z,60.17
2022-10-28T12:23:18.876Z,60.62
2022-10-28T12:28:41.268Z,60.55
2022-10-28T12:33:47.687Z,60.66
2022-10-28T12:38:57.450Z,60.98
2022-10-28T12:44:10.073Z,61.31
2022-10-28T12:49:32.778Z,61.48
2022-10-28T12:54:58.029Z,62.10
2022-10-28T13:00:02.666Z,62.70
2022-10-28T13:05:06.111Z,62.44
2022-10-28T13:10:29.885Z,62.05
2022-10-28T13:15:41.476Z,62.11
2022-10-28T13:20:53.997Z,61.52
2022-10-28T13:26:07.858Z,61.31
2022-10-28T13:31:10.511Z,61.69
2022-10-28T13:36:21.390Z,62.03
2022-10-28T13:41:28.750Z,62.05
2022-10-28T13:47:22.706Z,61.49
2022-10-28T13:52:25.270Z,62.09
2022-10-28T13:57:38.264Z,62.75
2022-10-28T14:02:46.628Z,63.02
2022-10-28T14:08:01.753Z,63.07
2022-10-28T14:13:20.623Z,63.06
2022-10-28T14:23:49.304Z,63.71
2022-10-28T14:28:52.723Z,64.02
2022-10-28T14:33:54.494Z,64.63
2022-10-28T14:39:37.004Z,65.27
2022-10-28T14:44:57.760Z,65.80
2022-10-28T14:50:03.485Z,66.08
2022-10-28T14:55:07.544Z,66.50
2022-10-28T15:00:19.129Z,67.09
2022-10-28T15:05:24.869Z,67.83
2022-10-28T15:10:30.108Z,68.49
2022-10-28T15:15:37.364Z,69.10
2022-10-28T15:20:39.559Z,69.78
2022-10-28T15:25:41.848Z,70.41
2022-10-28T15:30:46.608Z,71.36
2022-10-28T15:35:48.945Z,72.33
2022-10-28T15:40:51.788Z,73.02
2022-10-28T15:45:54.556Z,73.58
2022-10-28T15:51:22.978Z,74.28
2022-10-28T15:56:26.742Z,74.98
2022-10-28T16:01:39.689Z,75.72
2022-10-28T16:06:41.973Z,76.27
2022-10-28T16:11:48.670Z,76.81
2022-10-28T16:17:15.644Z,77.25
2022-10-28T16:22:19.055Z,77.70
2022-10-28T16:27:22.504Z,78.29
2022-10-28T16:32:38.709Z,78.90
2022-10-28T16:37:44.640Z,79.16
2022-10-28T16:42:47.951Z,79.55
2022-10-28T16:47:49.756Z,80.17
2022-10-28T16:52:54.292Z,80.92
2022-10-28T16:57:56.610Z,81.28
2022-10-28T17:02:59.282Z,81.37
2022-10-28T17:08:05.794Z,81.56
2022-10-28T17:13:15.384Z,81.66
2022-10-28T17:18:17.199Z,81.71
2022-10-28T17:23:18.926Z,81.88
2022-10-28T17:28:20.768Z,82.00
2022-10-28T17:33:23.622Z,82.26
2022-10-28T17:38:26.114Z,82.67
2022-10-28T17:43:28.037Z,83.07
2022-10-28T17:48:30.330Z,83.30
2022-10-28T17:59:40.651Z,83.58
2022-10-28T18:04:42.466Z,83.75
2022-10-28T18:09:44.415Z,83.75
2022-10-28T18:14:52.937Z,83.69
2022-10-28T18:20:02.405Z,83.88
2022-10-28T18:25:04.975Z,84.09
2022-10-28T18:30:07.578Z,84.20
2022-10-28T18:35:09.599Z,84.35
2022-10-28T18:40:12.299Z,84.50
2022-10-28T18:45:14.341Z,84.70
2022-10-28T18:50:16.530Z,84.79
2022-10-28T18:55:18.344Z,84.84
2022-10-28T19:00:20.719Z,84.83
2022-10-28T19:05:22.534Z,84.78
2022-10-28T19:10:24.542Z,84.83
2022-10-28T19:15:26.666Z,84.99
2022-10-28T19:20:28.715Z,85.02
2022-10-28T19:25:30.484Z,84.93
2022-10-28T19:30:32.772Z,84.90
2022-10-28T19:35:34.966Z,85.06
2022-10-28T19:40:37.034Z,85.30
2022-10-28T19:45:46.908Z,85.49
2022-10-28T19:50:57.324Z,85.75
2022-10-28T19:56:01.788Z,85.95
2022-10-28T20:01:06.579Z,86.06
2022-10-28T20:06:11.096Z,86.07
2022-10-28T20:11:16.178Z,86.11
2022-10-28T20:16:19.672Z,86.07
2022-10-28T20:21:24.317Z,85.99
2022-10-28T20:26:31.747Z,85.97
2022-10-28T20:31:33.862Z,86.08
2022-10-28T20:36:38.406Z,86.08
2022-10-28T20:41:41.974Z,86.33
2022-10-28T20:46:48.288Z,86.68
2022-10-28T20:51:50.323Z,86.81
2022-10-28T20:57:11.967Z,86.89
2022-10-28T21:02:27.387Z,86.96
2022-10-28T21:07:29.540Z,87.09
2022-10-28T21:12:36.643Z,87.23
2022-10-28T21:17:39.135Z,87.30
2022-10-28T21:22:40.943Z,87.22
2022-10-28T21:27:42.888Z,87.20
2022-10-28T21:32:47.635Z,87.22
2022-10-28T21:38:09.890Z,87.16
2022-10-28T21:43:18.199Z,87.17
2022-10-28T21:48:28.117Z,87.20
2022-10-28T21:53:35.794Z,87.21
2022-10-28T21:58:39.514Z,87.20
2022-10-28T22:03:41.548Z,87.15
2022-10-28T22:08:49.926Z,87.17
2022-10-28T22:14:03.991Z,87.13
2022-10-28T22:19:08.734Z,87.18
2022-10-28T22:24:10.936Z,87.23
2022-10-28T22:29:12.795Z,87.21
2022-10-28T22:34:14.774Z,87.17
2022-10-28T22:39:16.659Z,87.21
2022-10-28T22:44:18.726Z,87.22
2022-10-28T22:49:22.660Z,87.22
2022-10-28T22:54:24.537Z,87.22
2022-10-28T22:59:26.739Z,87.21
2022-10-28T23:04:28.821Z,87.20
2022-10-28T23:09:32.623Z,87.21
2022-10-28T23:14:38.619Z,87.26
2022-10-28T23:19:40.476Z,87.36
2022-10-28T23:24:42.455Z,87.40
2022-10-28T23:29:44.299Z,87.44
2022-10-28T23:34:46.221Z,87.49
2022-10-28T23:39:48.193Z,87.47
2022-10-28T23:45:10.848Z,87.36
2022-10-28T23:50:17.580Z,87.24
2022-10-28T23:55:19.527Z,87.29
